Time;durP1;ratioP1;P1;durP2;ratioP2;P2;SDS_P1;SDS_P2;PMS_P1;PMS_P2;Temp;Humidity;BMP_temperature;BMP_pressure;BME280_temperature;BME280_humidity;BME280_pressure;Samples;Min_cycle;Max_cycle;Signal;HPM_P1;HPM_P2
2022/05/02 00:00:00;;;;;;;;;;;20.50;38.50;;;;;;5077760;28;19943;-52
2022/05/02 00:02:26;;;;;;;;;;;20.50;38.50;;;;;;5077682;28;19963;-50
2022/05/02 00:04:53;;;;;;;;;;;20.50;38.50;;;;;;5077198;28;19928;-52
2022/05/02 00:07:20;;;;;;;;;;;20.50;38.50;;;;;;5076294;28;19967;-48
2022/05/02 00:09:46;;;;;;;;;;;20.50;38.50;;;;;;5075909;28;20322;-52
2022/05/02 00:12:13;;;;;;;;;;;20.50;38.50;;;;;;5058577;28;19927;-50
2022/05/02 00:14:41;;;;;;;;;;;20.50;38.50;;;;;;5059682;28;19967;-52
2022/05/02 00:17:08;;;;;;;;;;;20.50;38.50;;;;;;5076262;28;19920;-50
2022/05/02 00:19:34;;;;;;;;;;;20.50;38.40;;;;;;5053123;28;19950;-48
2022/05/02 00:22:01;;;;;;;;;;;20.50;38.40;;;;;;5061173;28;19971;-50
2022/05/02 00:24:28;;;;;;;;;;;20.50;38.30;;;;;;5045972;28;19921;-51
2022/05/02 00:26:54;;;;;;;;;;;20.50;38.30;;;;;;5052943;28;19959;-48
2022/05/02 00:29:21;;;;;;;;;;;20.50;38.30;;;;;;5078838;28;20362;-50
2022/05/02 00:31:49;;;;;;;;;;;20.50;38.30;;;;;;5069443;28;19921;-48
2022/05/02 00:34:16;;;;;;;;;;;20.50;38.30;;;;;;5061800;28;19928;-51
2022/05/02 00:36:43;;;;;;;;;;;20.50;38.30;;;;;;5080930;28;19920;-48
2022/05/02 00:39:09;;;;;;;;;;;20.50;38.30;;;;;;5076589;28;19920;-47
2022/05/02 00:41:36;;;;;;;;;;;20.50;38.30;;;;;;5063961;28;19920;-50
2022/05/02 00:44:03;;;;;;;;;;;20.50;38.30;;;;;;5080075;28;19963;-47
2022/05/02 00:46:29;;;;;;;;;;;20.50;38.30;;;;;;5079810;28;20007;-46
2022/05/02 00:48:57;;;;;;;;;;;20.50;38.30;;;;;;5062860;28;20396;-48
2022/05/02 00:51:24;;;;;;;;;;;20.50;38.30;;;;;;5062662;28;19928;-50
2022/05/02 00:53:51;;;;;;;;;;;20.50;38.30;;;;;;5059845;28;19986;-49
2022/05/02 00:56:18;;;;;;;;;;;20.50;38.30;;;;;;5068524;28;19975;-49
2022/05/02 00:58:45;;;;;;;;;;;20.50;38.30;;;;;;5063287;28;20288;-51
2022/05/02 01:01:12;;;;;;;;;;;20.50;38.30;;;;;;5071995;28;19927;-48
2022/05/02 01:03:38;;;;;;;;;;;20.50;38.30;;;;;;5072116;28;19921;-50
2022/05/02 01:08:51;;;;;;;;;;;20.50;38.30;;;;;;5070967;28;19921;-50
2022/05/02 01:11:18;;;;;;;;;;;20.50;38.30;;;;;;5061230;28;19978;-49
2022/05/02 01:13:45;;;;;;;;;;;20.50;38.30;;;;;;5062986;28;19920;-50
2022/05/02 01:16:13;;;;;;;;;;;20.50;38.30;;;;;;5062287;28;20015;-47
2022/05/02 01:18:40;;;;;;;;;;;20.50;38.30;;;;;;5062311;28;19981;-51
2022/05/02 01:21:11;;;;;;;;;;;20.50;38.30;;;;;;5060297;28;19962;-51
2022/05/02 01:23:38;;;;;;;;;;;20.50;38.30;;;;;;5057932;28;19921;-51
2022/05/02 01:26:05;;;;;;;;;;;20.50;38.30;;;;;;5061610;28;19928;-46
2022/05/02 01:28:31;;;;;;;;;;;20.50;38.30;;;;;;5083129;28;19920;-48
2022/05/02 01:30:58;;;;;;;;;;;20.50;38.30;;;;;;5079494;28;19920;-49
2022/05/02 01:33:25;;;;;;;;;;;20.50;38.30;;;;;;5075440;28;20007;-49
2022/05/02 01:35:51;;;;;;;;;;;20.50;38.30;;;;;;5078626;28;19971;-53
2022/05/02 01:38:19;;;;;;;;;;;20.50;38.30;;;;;;5065428;28;19921;-53
2022/05/02 01:40:46;;;;;;;;;;;20.50;38.20;;;;;;5056680;28;20350;-50
2022/05/02 01:43:12;;;;;;;;;;;20.50;38.30;;;;;;5064067;28;19943;-49
2022/05/02 01:45:39;;;;;;;;;;;20.50;38.30;;;;;;5061249;28;20084;-52
2022/05/02 01:48:06;;;;;;;;;;;20.50;38.20;;;;;;5058664;28;19921;-49
2022/05/02 01:50:33;;;;;;;;;;;20.50;38.20;;;;;;5054025;28;19992;-49
2022/05/02 01:53:00;;;;;;;;;;;20.40;38.10;;;;;;5080901;28;20012;-51
2022/05/02 01:55:28;;;;;;;;;;;20.50;38.20;;;;;;5060988;28;19996;-50
2022/05/02 01:57:54;;;;;;;;;;;20.40;38.10;;;;;;5063404;28;19921;-48
2022/05/02 02:00:21;;;;;;;;;;;20.40;38.10;;;;;;5064905;28;19964;-51
2022/05/02 02:02:48;;;;;;;;;;;20.40;38.10;;;;;;5080906;28;19931;-50
2022/05/02 02:07:59;;;;;;;;;;;20.40;38.00;;;;;;5076663;28;19974;-52
2022/05/02 02:10:26;;;;;;;;;;;20.40;38.00;;;;;;5076563;28;19926;-50
2022/05/02 02:12:54;;;;;;;;;;;20.40;38.00;;;;;;5046813;28;20024;-49
2022/05/02 02:15:20;;;;;;;;;;;20.40;38.00;;;;;;5048645;28;19999;-49
2022/05/02 02:17:47;;;;;;;;;;;20.40;38.00;;;;;;5056393;28;20031;-46
2022/05/02 02:20:14;;;;;;;;;;;20.40;38.60;;;;;;5067924;28;19927;-53
2022/05/02 02:22:40;;;;;;;;;;;20.40;38.00;;;;;;5059192;28;19920;-48
2022/05/02 02:25:07;;;;;;;;;;;20.40;38.00;;;;;;5079220;28;19920;-51
2022/05/02 02:27:34;;;;;;;;;;;20.40;38.00;;;;;;5059033;28;19920;-48
2022/05/02 02:30:02;;;;;;;;;;;20.40;38.00;;;;;;5074480;28;19989;-48
2022/05/02 02:32:29;;;;;;;;;;;20.40;38.00;;;;;;5073518;28;19925;-50
2022/05/02 02:34:56;;;;;;;;;;;20.40;38.00;;;;;;5080264;28;19950;-47
2022/05/02 02:37:22;;;;;;;;;;;20.40;37.90;;;;;;5056019;28;19920;-52
2022/05/02 02:39:49;;;;;;;;;;;20.40;38.00;;;;;;5080026;28;19920;-48
2022/05/02 02:42:16;;;;;;;;;;;20.40;37.90;;;;;;5082911;28;19920;-47
2022/05/02 02:44:43;;;;;;;;;;;20.40;38.00;;;;;;5079634;28;19935;-49
2022/05/02 02:47:11;;;;;;;;;;;20.40;38.00;;;;;;5081315;28;19927;-52
2022/05/02 02:49:37;;;;;;;;;;;20.40;37.90;;;;;;5080591;28;19948;-52
2022/05/02 02:52:04;;;;;;;;;;;20.40;38.00;;;;;;5059521;28;19927;-52
2022/05/02 02:54:31;;;;;;;;;;;20.40;37.90;;;;;;5061007;28;19942;-47
2022/05/02 02:57:00;;;;;;;;;;;20.40;38.00;;;;;;5078097;28;19920;-52
2022/05/02 02:59:26;;;;;;;;;;;20.40;38.00;;;;;;5078278;28;19971;-51
2022/05/02 03:01:53;;;;;;;;;;;20.40;38.00;;;;;;5054765;28;20388;-53
2022/05/02 03:07:05;;;;;;;;;;;20.40;38.00;;;;;;5055133;28;19958;-48
2022/05/02 03:09:32;;;;;;;;;;;20.40;38.00;;;;;;5053950;28;19924;-48
2022/05/02 03:11:59;;;;;;;;;;;20.40;38.00;;;;;;5060495;28;19920;-48
2022/05/02 03:14:25;;;;;;;;;;;20.40;38.00;;;;;;5074857;28;19932;-49
2022/05/02 03:16:52;;;;;;;;;;;20.40;37.90;;;;;;5058171;28;19978;-50
2022/05/02 03:19:19;;;;;;;;;;;20.40;37.90;;;;;;5063942;28;19943;-47
2022/05/02 03:21:47;;;;;;;;;;;20.40;37.90;;;;;;5071389;28;19921;-50
2022/05/02 03:24:14;;;;;;;;;;;20.40;37.90;;;;;;5051097;28;19928;-51
2022/05/02 03:26:41;;;;;;;;;;;20.40;37.90;;;;;;5058169;28;19960;-49
2022/05/02 03:29:07;;;;;;;;;;;20.40;37.90;;;;;;5040890;28;19924;-51
2022/05/02 03:31:34;;;;;;;;;;;20.40;37.90;;;;;;5062074;28;20225;-49
2022/05/02 03:34:01;;;;;;;;;;;20.40;37.90;;;;;;5060122;28;19977;-51
2022/05/02 03:36:27;;;;;;;;;;;20.40;37.90;;;;;;5061376;28;19921;-49
2022/05/02 03:38:55;;;;;;;;;;;20.40;37.90;;;;;;5059670;28;19967;-50
2022/05/02 03:41:22;;;;;;;;;;;20.40;37.90;;;;;;5060994;28;19951;-48
2022/05/02 03:43:49;;;;;;;;;;;20.40;37.90;;;;;;5057939;28;19943;-53
2022/05/02 03:46:16;;;;;;;;;;;20.40;37.90;;;;;;5076175;28;19970;-49
2022/05/02 03:48:44;;;;;;;;;;;20.40;37.90;;;;;;5061906;28;19980;-50
2022/05/02 03:51:10;;;;;;;;;;;20.40;37.90;;;;;;5070176;28;20257;-52
2022/05/02 03:53:37;;;;;;;;;;;20.40;37.90;;;;;;5058009;28;19926;-50
2022/05/02 03:56:05;;;;;;;;;;;20.40;37.90;;;;;;5077930;28;19973;-52
2022/05/02 03:58:32;;;;;;;;;;;20.40;37.90;;;;;;5055940;28;19928;-47
2022/05/02 04:00:59;;;;;;;;;;;20.40;37.90;;;;;;5078128;28;19990;-49
2022/05/02 04:03:25;;;;;;;;;;;20.40;37.90;;;;;;5077636;28;19979;-53
2022/05/02 04:05:52;;;;;;;;;;;20.40;37.80;;;;;;5057570;28;19924;-49
2022/05/02 04:08:19;;;;;;;;;;;20.40;37.90;;;;;;5076711;28;19966;-47
2022/05/02 04:10:45;;;;;;;;;;;20.40;37.80;;;;;;5057143;28;19920;-49
2022/05/02 04:13:13;;;;;;;;;;;20.40;37.80;;;;;;5056943;28;19943;-49
2022/05/02 04:15:41;;;;;;;;;;;20.40;37.80;;;;;;5060940;28;19928;-50
2022/05/02 04:18:08;;;;;;;;;;;20.40;37.80;;;;;;5078421;28;19921;-46
2022/05/02 04:20:35;;;;;;;;;;;20.40;37.80;;;;;;5073143;28;20019;-57
2022/05/02 04:23:01;;;;;;;;;;;20.40;37.90;;;;;;5045523;28;19920;-48
2022/05/02 04:25:28;;;;;;;;;;;20.40;37.80;;;;;;5075372;28;19932;-49
2022/05/02 04:27:55;;;;;;;;;;;20.40;37.80;;;;;;5056980;28;19920;-50
2022/05/02 04:30:23;;;;;;;;;;;20.40;37.80;;;;;;5075496;28;19921;-48
2022/05/02 04:32:49;;;;;;;;;;;20.40;37.80;;;;;;5058551;28;19924;-49
2022/05/02 04:35:16;;;;;;;;;;;20.40;37.80;;;;;;5079328;28;19920;-51
2022/05/02 04:37:43;;;;;;;;;;;20.50;37.90;;;;;;5059964;28;20060;-52
2022/05/02 04:40:10;;;;;;;;;;;20.40;37.90;;;;;;5077534;28;20778;-49
2022/05/02 04:42:37;;;;;;;;;;;20.40;37.80;;;;;;5070224;28;19920;-49
2022/05/02 04:45:04;;;;;;;;;;;20.40;37.90;;;;;;5049429;28;19924;-50
2022/05/02 04:47:32;;;;;;;;;;;20.40;37.80;;;;;;5055139;28;19920;-52
2022/05/02 04:49:59;;;;;;;;;;;20.40;37.80;;;;;;5061768;28;20354;-51
2022/05/02 04:52:26;;;;;;;;;;;20.40;37.80;;;;;;5064853;28;19951;-47
2022/05/02 04:54:52;;;;;;;;;;;20.40;37.80;;;;;;5057392;28;19921;-46
2022/05/02 04:57:19;;;;;;;;;;;20.40;37.80;;;;;;5046230;28;19921;-48
2022/05/02 04:59:46;;;;;;;;;;;20.40;37.80;;;;;;5063361;28;19920;-48
2022/05/02 05:02:12;;;;;;;;;;;20.40;37.70;;;;;;5046783;28;20374;-45
2022/05/02 05:04:40;;;;;;;;;;;20.40;37.70;;;;;;5074676;28;19920;-47
2022/05/02 05:07:07;;;;;;;;;;;20.40;37.70;;;;;;5056882;28;19920;-46
2022/05/02 05:09:34;;;;;;;;;;;20.40;37.70;;;;;;5065688;28;20271;-45
2022/05/02 05:12:01;;;;;;;;;;;20.40;37.70;;;;;;5056458;28;19949;-47
2022/05/02 05:17:17;;;;;;;;;;;20.40;37.70;;;;;;5055217;28;20334;-47
2022/05/02 05:19:49;;;;;;;;;;;20.40;37.60;;;;;;5044214;28;19921;-51
2022/05/02 05:22:18;;;;;;;;;;;20.40;37.70;;;;;;5062555;28;19921;-50
2022/05/02 05:25:03;;;;;;;;;;;20.40;37.60;;;;;;5067281;28;19970;-52
2022/05/02 05:27:34;;;;;;;;;;;20.40;37.70;;;;;;5069860;28;19920;-52
2022/05/02 05:30:02;;;;;;;;;;;20.40;37.60;;;;;;5066919;28;20019;-52
2022/05/02 05:32:32;;;;;;;;;;;20.40;37.60;;;;;;5056687;28;19933;-52
2022/05/02 05:35:03;;;;;;;;;;;20.40;37.60;;;;;;5070111;28;20384;-48
2022/05/02 05:37:33;;;;;;;;;;;20.40;37.60;;;;;;5033717;28;20420;-51
2022/05/02 05:40:04;;;;;;;;;;;20.40;37.60;;;;;;5063498;28;19924;-53
2022/05/02 05:42:33;;;;;;;;;;;20.40;37.60;;;;;;5050815;28;19925;-49
2022/05/02 05:45:02;;;;;;;;;;;20.40;37.60;;;;;;5071722;28;19960;-53
2022/05/02 05:47:33;;;;;;;;;;;20.40;37.60;;;;;;5044842;28;20015;-52
2022/05/02 05:50:06;;;;;;;;;;;20.40;37.60;;;;;;5054771;28;19924;-48
2022/05/02 05:52:36;;;;;;;;;;;20.40;37.70;;;;;;5057022;28;19920;-55
2022/05/02 05:55:04;;;;;;;;;;;20.40;37.70;;;;;;5054433;28;19969;-51
2022/05/02 05:57:34;;;;;;;;;;;20.40;37.70;;;;;;5073880;28;19925;-49
2022/05/02 06:00:05;;;;;;;;;;;20.40;37.70;;;;;;5076500;28;19971;-51
2022/05/02 06:02:34;;;;;;;;;;;20.40;37.70;;;;;;5071753;28;19928;-50
2022/05/02 06:05:00;;;;;;;;;;;20.40;37.70;;;;;;5052278;28;19947;-56
2022/05/02 06:07:28;;;;;;;;;;;20.40;37.70;;;;;;5047277;28;20357;-50
2022/05/02 06:09:56;;;;;;;;;;;20.40;37.70;;;;;;5052330;28;20368;-51
2022/05/02 06:12:22;;;;;;;;;;;20.40;37.70;;;;;;5054305;28;20224;-52
2022/05/02 06:20:19;;;;;;;;;;;20.40;38.30;;;;;;5050823;28;19924;-51
2022/05/02 06:22:47;;;;;;;;;;;20.40;37.70;;;;;;5068883;28;19931;-49
2022/05/02 06:25:14;;;;;;;;;;;20.40;37.80;;;;;;5049207;28;19974;-53
2022/05/02 06:27:42;;;;;;;;;;;20.40;37.80;;;;;;5071089;28;19993;-56
2022/05/02 06:30:09;;;;;;;;;;;20.40;37.80;;;;;;5056925;28;19999;-56
2022/05/02 06:32:36;;;;;;;;;;;20.40;37.80;;;;;;5053458;28;19952;-50
2022/05/02 06:35:03;;;;;;;;;;;20.40;37.80;;;;;;5068927;28;20011;-48
2022/05/02 06:37:35;;;;;;;;;;;20.40;37.80;;;;;;5070306;28;20312;-53
2022/05/02 06:40:07;;;;;;;;;;;20.40;37.80;;;;;;5055665;28;19921;-50
2022/05/02 06:42:36;;;;;;;;;;;20.40;37.80;;;;;;5064155;28;19924;-52
2022/05/02 06:45:04;;;;;;;;;;;20.40;37.80;;;;;;5054224;28;19932;-55
2022/05/02 06:47:33;;;;;;;;;;;20.40;37.80;;;;;;5072206;28;20308;-47
2022/05/02 06:50:01;;;;;;;;;;;20.40;37.80;;;;;;5074163;28;19925;-50
2022/05/02 06:52:32;;;;;;;;;;;20.40;37.80;;;;;;5054790;28;19925;-56
2022/05/02 06:55:02;;;;;;;;;;;20.40;37.80;;;;;;5031715;28;19979;-54
2022/05/02 06:57:35;;;;;;;;;;;20.40;37.80;;;;;;5036019;28;19928;-53
2022/05/02 07:00:03;;;;;;;;;;;20.40;37.80;;;;;;5041198;28;19964;-52
2022/05/02 07:02:51;;;;;;;;;;;20.40;37.80;;;;;;5056644;28;19962;-50
2022/05/02 07:05:20;;;;;;;;;;;20.40;37.80;;;;;;5034204;28;19925;-56
2022/05/02 07:07:51;;;;;;;;;;;20.40;37.80;;;;;;5044869;28;19935;-50
2022/05/02 07:10:19;;;;;;;;;;;20.40;37.80;;;;;;5050675;28;19971;-45
2022/05/02 07:12:49;;;;;;;;;;;20.50;37.80;;;;;;5062244;28;19966;-54
2022/05/02 07:15:18;;;;;;;;;;;20.40;38.40;;;;;;5043972;28;20316;-52
2022/05/02 07:18:04;;;;;;;;;;;20.40;37.70;;;;;;5065995;28;19921;-55
2022/05/02 07:20:32;;;;;;;;;;;20.50;37.80;;;;;;5062580;28;19952;-56
2022/05/02 07:23:06;;;;;;;;;;;20.50;37.80;;;;;;5053394;28;20007;-51
2022/05/02 07:25:33;;;;;;;;;;;20.40;37.70;;;;;;5049061;28;19959;-49
2022/05/02 07:28:14;;;;;;;;;;;20.50;37.80;;;;;;5041157;28;19925;-47
2022/05/02 07:30:40;;;;;;;;;;;20.40;37.70;;;;;;5041642;28;19928;-45
2022/05/02 07:33:08;;;;;;;;;;;20.50;37.80;;;;;;5055059;28;20293;-51
2022/05/02 07:35:35;;;;;;;;;;;20.50;37.70;;;;;;5036250;28;20141;-46
2022/05/02 07:38:02;;;;;;;;;;;20.50;37.80;;;;;;5041511;28;19942;-45
2022/05/02 07:40:29;;;;;;;;;;;20.50;37.80;;;;;;5035735;28;19928;-47
2022/05/02 07:42:55;;;;;;;;;;;20.50;37.70;;;;;;5042743;28;19931;-53
2022/05/02 07:45:25;;;;;;;;;;;20.50;37.80;;;;;;5034263;28;19920;-53
2022/05/02 07:47:52;;;;;;;;;;;20.50;37.80;;;;;;5058904;28;19958;-54
2022/05/02 07:50:19;;;;;;;;;;;20.50;37.80;;;;;;5043975;28;20007;-54
2022/05/02 07:52:46;;;;;;;;;;;20.50;37.80;;;;;;5039409;28;19960;-48
2022/05/02 07:55:12;;;;;;;;;;;20.50;37.80;;;;;;5042417;28;19959;-54
2022/05/02 07:57:40;;;;;;;;;;;20.50;37.70;;;;;;5060485;28;20011;-51
2022/05/02 08:00:08;;;;;;;;;;;20.50;37.70;;;;;;5043846;28;19956;-54
2022/05/02 08:02:36;;;;;;;;;;;20.50;37.80;;;;;;5046038;28;19921;-47
2022/05/02 08:05:04;;;;;;;;;;;20.50;37.70;;;;;;5050707;28;20353;-47
2022/05/02 08:07:32;;;;;;;;;;;20.50;37.70;;;;;;5043285;28;19971;-52
2022/05/02 08:10:06;;;;;;;;;;;20.50;37.70;;;;;;5064230;28;19935;-52
2022/05/02 08:12:36;;;;;;;;;;;20.50;37.70;;;;;;5066743;28;19932;-48
2022/05/02 08:15:03;;;;;;;;;;;20.50;37.70;;;;;;5050976;28;19928;-47
2022/05/02 08:17:41;;;;;;;;;;;20.50;37.70;;;;;;5068771;28;19986;-52
2022/05/02 08:20:10;;;;;;;;;;;20.50;37.70;;;;;;5047816;28;19924;-48
2022/05/02 08:28:09;;;;;;;;;;;20.50;37.70;;;;;;5049311;28;20368;-49
2022/05/02 08:30:39;;;;;;;;;;;20.50;38.30;;;;;;5069912;28;20264;-46
2022/05/02 08:33:07;;;;;;;;;;;20.50;37.70;;;;;;5043229;28;19921;-55
2022/05/02 08:35:44;;;;;;;;;;;20.50;37.70;;;;;;5039893;28;19978;-52
2022/05/02 08:38:15;;;;;;;;;;;20.50;37.70;;;;;;5057409;28;19920;-52
2022/05/02 08:41:12;;;;;;;;;;;20.50;37.70;;;;;;5070607;28;19925;-50
2022/05/02 08:43:57;;;;;;;;;;;20.50;37.70;;;;;;4986906;28;19922;-51
2022/05/02 08:46:45;;;;;;;;;;;20.50;37.70;;;;;;5042466;28;20030;-56
2022/05/02 08:49:36;;;;;;;;;;;20.50;37.70;;;;;;5033699;28;19925;-51
2022/05/02 08:52:18;;;;;;;;;;;20.50;37.70;;;;;;5056106;28;20488;-51
2022/05/02 08:55:01;;;;;;;;;;;20.50;37.70;;;;;;5043849;28;20340;-50
2022/05/02 08:57:43;;;;;;;;;;;20.50;37.70;;;;;;5061610;28;20465;-52
2022/05/02 09:00:11;;;;;;;;;;;20.50;37.70;;;;;;5051000;28;19927;-46
2022/05/02 09:02:52;;;;;;;;;;;20.50;37.70;;;;;;5043821;28;20464;-51
2022/05/02 09:05:34;;;;;;;;;;;20.50;37.70;;;;;;5051730;28;19933;-48
2022/05/02 09:08:22;;;;;;;;;;;20.50;37.70;;;;;;5041169;28;19975;-55
2022/05/02 09:11:07;;;;;;;;;;;20.50;37.70;;;;;;5028820;28;19947;-48
2022/05/02 09:13:46;;;;;;;;;;;20.50;37.70;;;;;;5054462;28;19931;-51
2022/05/02 09:16:34;;;;;;;;;;;20.50;37.70;;;;;;5065897;28;19979;-48
2022/05/02 09:19:25;;;;;;;;;;;20.50;37.70;;;;;;5070432;28;19925;-56
2022/05/02 09:21:58;;;;;;;;;;;20.50;37.70;;;;;;5050717;28;19925;-52
2022/05/02 09:24:32;;;;;;;;;;;20.50;37.70;;;;;;5054806;28;20298;-49
2022/05/02 09:27:21;;;;;;;;;;;20.50;37.70;;;;;;5062529;28;19924;-50
2022/05/02 09:30:06;;;;;;;;;;;20.50;37.70;;;;;;5052524;28;19924;-50
2022/05/02 09:32:38;;;;;;;;;;;20.50;37.70;;;;;;5052376;28;20019;-50
2022/05/02 09:35:06;;;;;;;;;;;20.50;37.70;;;;;;5049694;28;20007;-54
2022/05/02 09:37:35;;;;;;;;;;;20.50;37.70;;;;;;5046777;28;19925;-55
2022/05/02 09:40:04;;;;;;;;;;;20.50;37.70;;;;;;5046657;28;19964;-50
2022/05/02 09:42:35;;;;;;;;;;;20.50;37.70;;;;;;5062547;28;20018;-55
2022/05/02 09:50:44;;;;;;;;;;;20.50;37.70;;;;;;5041132;28;20370;-54
2022/05/02 09:53:16;;;;;;;;;;;20.50;37.70;;;;;;5049000;28;19952;-50
2022/05/02 09:58:34;;;;;;;;;;;20.60;37.80;;;;;;5066330;28;19935;-54
2022/05/02 10:01:09;;;;;;;;;;;20.60;37.80;;;;;;5071579;28;19970;-49
2022/05/02 10:03:40;;;;;;;;;;;20.60;37.80;;;;;;5047794;28;19924;-47
2022/05/02 10:06:09;;;;;;;;;;;20.60;37.70;;;;;;5056155;28;19924;-48
2022/05/02 10:08:44;;;;;;;;;;;20.60;37.70;;;;;;5063748;28;20407;-53
2022/05/02 10:11:14;;;;;;;;;;;20.60;37.80;;;;;;5070703;28;19963;-49
2022/05/02 10:13:43;;;;;;;;;;;20.50;37.70;;;;;;5042192;28;19921;-51
2022/05/02 10:16:12;;;;;;;;;;;20.60;37.70;;;;;;5046962;28;19921;-55
2022/05/02 10:18:44;;;;;;;;;;;20.60;37.80;;;;;;5053797;28;19943;-48
2022/05/02 10:21:14;;;;;;;;;;;20.60;37.70;;;;;;5053473;28;20223;-51
2022/05/02 10:23:54;;;;;;;;;;;20.60;37.80;;;;;;5062499;28;19924;-57
2022/05/02 10:26:31;;;;;;;;;;;20.60;37.80;;;;;;5052785;28;20031;-50
2022/05/02 10:29:12;;;;;;;;;;;20.60;37.80;;;;;;5046363;28;19940;-57
2022/05/02 10:31:39;;;;;;;;;;;20.60;37.80;;;;;;5042205;28;19921;-47
2022/05/02 10:34:08;;;;;;;;;;;20.60;37.80;;;;;;5046777;28;19974;-57
2022/05/02 10:36:36;;;;;;;;;;;20.60;37.80;;;;;;5061823;28;19932;-52
2022/05/02 10:39:06;;;;;;;;;;;20.60;37.80;;;;;;5062006;28;20036;-53
2022/05/02 10:41:35;;;;;;;;;;;20.60;37.80;;;;;;5055871;28;19978;-49
2022/05/02 10:44:03;;;;;;;;;;;20.60;37.80;;;;;;5060087;28;20281;-52
2022/05/02 10:46:30;;;;;;;;;;;20.60;38.40;;;;;;5025029;28;20270;-55
2022/05/02 10:49:00;;;;;;;;;;;20.60;37.80;;;;;;5061523;28;20359;-51
2022/05/02 10:51:31;;;;;;;;;;;20.60;37.80;;;;;;5053960;28;20010;-48
2022/05/02 10:53:59;;;;;;;;;;;20.60;37.80;;;;;;5052172;28;19931;-55
2022/05/02 10:56:32;;;;;;;;;;;20.60;37.80;;;;;;5050543;28;20041;-55
2022/05/02 10:58:59;;;;;;;;;;;20.60;37.80;;;;;;5055941;28;19968;-52
2022/05/02 11:01:44;;;;;;;;;;;20.60;37.80;;;;;;5052942;28;20014;-49
2022/05/02 11:04:15;;;;;;;;;;;20.60;37.80;;;;;;5057527;28;20263;-49
2022/05/02 11:06:56;;;;;;;;;;;20.60;37.80;;;;;;5051646;28;20050;-53
2022/05/02 11:09:26;;;;;;;;;;;20.60;37.80;;;;;;5047935;28;20024;-53
2022/05/02 11:11:52;;;;;;;;;;;20.60;37.80;;;;;;5064022;28;19925;-54
2022/05/02 11:14:27;;;;;;;;;;;20.60;37.80;;;;;;5069811;28;19978;-48
2022/05/02 11:16:56;;;;;;;;;;;20.60;37.80;;;;;;5047691;28;19921;-57
2022/05/02 11:22:16;;;;;;;;;;;20.60;37.80;;;;;;5051780;28;20026;-48
2022/05/02 11:24:43;;;;;;;;;;;20.60;37.80;;;;;;5058018;28;20082;-56
2022/05/02 11:27:14;;;;;;;;;;;20.60;37.80;;;;;;5048476;28;19921;-50
2022/05/02 11:29:45;;;;;;;;;;;20.60;37.80;;;;;;5052504;28;19986;-52
2022/05/02 11:32:17;;;;;;;;;;;20.60;37.80;;;;;;5052930;28;19932;-51
2022/05/02 11:34:44;;;;;;;;;;;20.60;37.80;;;;;;5063739;28;19920;-54
2022/05/02 11:37:13;;;;;;;;;;;20.60;37.80;;;;;;5055733;28;19927;-52
2022/05/02 11:39:45;;;;;;;;;;;20.60;37.80;;;;;;5044548;28;20349;-57
2022/05/02 11:42:14;;;;;;;;;;;20.60;37.80;;;;;;5048103;28;20357;-51
2022/05/02 11:44:46;;;;;;;;;;;20.60;37.80;;;;;;5049014;28;20429;-51
2022/05/02 11:47:16;;;;;;;;;;;20.60;37.80;;;;;;5049305;28;19924;-51
2022/05/02 11:49:49;;;;;;;;;;;20.60;37.80;;;;;;5048681;28;19927;-54
2022/05/02 11:52:19;;;;;;;;;;;20.60;37.80;;;;;;5044376;28;19925;-51
2022/05/02 11:54:47;;;;;;;;;;;20.60;37.80;;;;;;5048801;28;20099;-51
2022/05/02 11:57:17;;;;;;;;;;;20.60;37.80;;;;;;5050516;28;20360;-52
2022/05/02 11:59:46;;;;;;;;;;;20.60;37.80;;;;;;5059125;28;19974;-51
2022/05/02 12:02:18;;;;;;;;;;;20.70;37.90;;;;;;5051341;28;19924;-53
2022/05/02 12:04:45;;;;;;;;;;;20.60;37.80;;;;;;5051403;28;19955;-50
2022/05/02 12:07:12;;;;;;;;;;;20.70;37.90;;;;;;5042284;28;19936;-49
2022/05/02 12:09:39;;;;;;;;;;;20.60;37.80;;;;;;5060481;28;19974;-54
2022/05/02 12:12:08;;;;;;;;;;;20.70;37.90;;;;;;5065239;28;19978;-54
2022/05/02 12:14:34;;;;;;;;;;;20.60;37.80;;;;;;5052042;28;19924;-50
2022/05/02 12:17:09;;;;;;;;;;;20.60;37.80;;;;;;5065685;28;19935;-55
2022/05/02 12:19:36;;;;;;;;;;;20.70;37.90;;;;;;5039249;28;19947;-49
2022/05/02 12:22:04;;;;;;;;;;;20.60;37.80;;;;;;5062016;28;20003;-49
2022/05/02 12:24:33;;;;;;;;;;;20.70;37.90;;;;;;5049431;28;19932;-54
2022/05/02 12:27:00;;;;;;;;;;;20.70;38.00;;;;;;5069879;28;19921;-51
2022/05/02 12:29:29;;;;;;;;;;;20.70;37.90;;;;;;5054504;28;19921;-51
2022/05/02 12:31:56;;;;;;;;;;;20.60;37.80;;;;;;5055285;28;19960;-48
2022/05/02 12:34:23;;;;;;;;;;;20.70;38.00;;;;;;5075107;28;19925;-56
2022/05/02 12:36:51;;;;;;;;;;;20.60;37.80;;;;;;5065683;28;19943;-51
2022/05/02 12:39:18;;;;;;;;;;;20.70;37.90;;;;;;5050004;28;19925;-52
2022/05/02 12:41:45;;;;;;;;;;;20.70;38.00;;;;;;5057095;28;20011;-50
2022/05/02 12:44:13;;;;;;;;;;;20.70;37.90;;;;;;5057251;28;19920;-55
2022/05/02 12:46:41;;;;;;;;;;;20.70;37.90;;;;;;5052408;28;19975;-48
2022/05/02 12:49:11;;;;;;;;;;;20.70;38.00;;;;;;5050648;28;19927;-51
2022/05/02 12:51:37;;;;;;;;;;;20.70;37.90;;;;;;5056739;28;20001;-56
2022/05/02 12:54:12;;;;;;;;;;;20.70;38.00;;;;;;5059827;28;19979;-54
2022/05/02 13:02:33;;;;;;;;;;;20.70;38.00;;;;;;5035905;28;19927;-54
2022/05/02 13:05:01;;;;;;;;;;;20.70;38.00;;;;;;5048505;28;19932;-52
2022/05/02 13:07:27;;;;;;;;;;;20.70;38.00;;;;;;5048229;28;19928;-50
2022/05/02 13:09:54;;;;;;;;;;;20.70;37.90;;;;;;5070641;28;19966;-49
2022/05/02 13:12:22;;;;;;;;;;;20.70;38.00;;;;;;5070340;28;19920;-52
2022/05/02 13:14:49;;;;;;;;;;;20.70;37.90;;;;;;5069044;28;20015;-52
2022/05/02 13:17:16;;;;;;;;;;;20.70;38.00;;;;;;5066858;28;20397;-50
2022/05/02 13:19:45;;;;;;;;;;;20.70;37.90;;;;;;5050492;28;19966;-52
2022/05/02 13:22:11;;;;;;;;;;;20.70;38.00;;;;;;5054061;28;20345;-49
2022/05/02 13:24:50;;;;;;;;;;;20.70;38.00;;;;;;5046042;28;20328;-53
2022/05/02 13:27:18;;;;;;;;;;;20.70;38.00;;;;;;5052011;28;20353;-52
2022/05/02 13:29:48;;;;;;;;;;;20.70;38.00;;;;;;5042954;28;19958;-51
2022/05/02 13:32:16;;;;;;;;;;;20.70;38.00;;;;;;5061313;28;19932;-50
2022/05/02 13:35:04;;;;;;;;;;;20.70;38.00;;;;;;5047767;28;19924;-51
2022/05/02 13:37:36;;;;;;;;;;;20.70;38.00;;;;;;5059805;28;19939;-54
2022/05/02 13:40:05;;;;;;;;;;;20.70;38.00;;;;;;5061790;28;19921;-51
2022/05/02 13:42:39;;;;;;;;;;;20.70;38.00;;;;;;5042760;28;20009;-49
2022/05/02 13:45:06;;;;;;;;;;;20.70;38.00;;;;;;5052858;28;20346;-50
2022/05/02 13:47:42;;;;;;;;;;;20.70;38.00;;;;;;5043270;28;19928;-50
2022/05/02 13:50:11;;;;;;;;;;;20.70;38.00;;;;;;5054403;28;20378;-52
2022/05/02 13:52:44;;;;;;;;;;;20.70;38.00;;;;;;5048629;28;20019;-51
2022/05/02 13:55:13;;;;;;;;;;;20.70;38.00;;;;;;5047860;28;19959;-51
2022/05/02 13:57:44;;;;;;;;;;;20.70;38.00;;;;;;5051404;28;19939;-48
2022/05/02 14:03:09;;;;;;;;;;;20.70;38.00;;;;;;5066541;28;19932;-50
2022/05/02 14:05:43;;;;;;;;;;;20.70;38.00;;;;;;5066827;28;19920;-55
2022/05/02 14:08:13;;;;;;;;;;;20.70;37.90;;;;;;5050377;28;19931;-47
2022/05/02 14:10:53;;;;;;;;;;;20.70;38.00;;;;;;5060581;28;19928;-51
2022/05/02 14:13:20;;;;;;;;;;;20.70;38.00;;;;;;5053047;28;19938;-46
2022/05/02 14:15:47;;;;;;;;;;;20.70;38.00;;;;;;5070852;28;19978;-52
2022/05/02 14:18:17;;;;;;;;;;;20.70;38.00;;;;;;5059759;28;19951;-50
2022/05/02 14:20:45;;;;;;;;;;;20.70;38.00;;;;;;5051486;28;19989;-50
2022/05/02 14:23:13;;;;;;;;;;;20.70;38.00;;;;;;5053286;28;19920;-51
2022/05/02 14:25:41;;;;;;;;;;;20.70;38.00;;;;;;5054697;28;20379;-47
2022/05/02 14:28:11;;;;;;;;;;;20.70;38.00;;;;;;5052335;28;19936;-47
2022/05/02 14:30:38;;;;;;;;;;;20.70;38.00;;;;;;5055948;28;19927;-51
2022/05/02 14:33:05;;;;;;;;;;;20.70;38.00;;;;;;5047762;28;19928;-51
2022/05/02 14:35:37;;;;;;;;;;;20.70;38.00;;;;;;5049450;28;19931;-46
2022/05/02 14:38:04;;;;;;;;;;;20.70;38.00;;;;;;5044778;28;19931;-47
2022/05/02 14:40:32;;;;;;;;;;;20.70;38.00;;;;;;5050469;28;19933;-55
2022/05/02 14:42:59;;;;;;;;;;;20.70;38.00;;;;;;5049711;28;19974;-51
2022/05/02 14:45:25;;;;;;;;;;;20.70;38.00;;;;;;5070862;28;19965;-48
2022/05/02 14:47:52;;;;;;;;;;;20.70;38.00;;;;;;5069009;28;19924;-49
2022/05/02 14:50:19;;;;;;;;;;;20.70;38.00;;;;;;5050031;28;19924;-48
2022/05/02 14:52:46;;;;;;;;;;;20.70;38.00;;;;;;5068093;28;19948;-55
2022/05/02 14:55:13;;;;;;;;;;;20.70;38.00;;;;;;5048887;28;20016;-51
2022/05/02 14:57:43;;;;;;;;;;;20.70;38.00;;;;;;5049370;28;19932;-51
2022/05/02 15:00:11;;;;;;;;;;;20.70;38.00;;;;;;5036637;28;19929;-52
2022/05/02 15:02:38;;;;;;;;;;;20.70;38.00;;;;;;5040789;28;19941;-53
2022/05/02 15:05:07;;;;;;;;;;;20.70;38.00;;;;;;5067066;28;19927;-53
2022/05/02 15:07:38;;;;;;;;;;;20.70;38.00;;;;;;5053809;28;19928;-49
2022/05/02 15:10:15;;;;;;;;;;;20.70;38.00;;;;;;5071043;28;19934;-47